createdAt,value
2023-05-21T00:01:10.723Z,15.18
2023-05-21T00:04:53.547Z,15.13
2023-05-21T00:08:36.586Z,16.88
2023-05-21T00:12:19.718Z,17.08
2023-05-21T00:15:04.783Z,14.98
2023-05-21T00:17:34.219Z,17.67
2023-05-21T00:20:02.358Z,13.73
2023-05-21T00:22:30.472Z,21.08
2023-05-21T00:24:58.559Z,25.17
2023-05-21T00:27:30.249Z,16.98
2023-05-21T00:29:57.928Z,18.25
2023-05-21T00:32:25.480Z,17.23
2023-05-21T00:34:52.758Z,16.85
2023-05-21T00:37:20.830Z,16.35
2023-05-21T00:39:48.126Z,14.23
2023-05-21T00:42:18.367Z,14.25
2023-05-21T00:44:46.464Z,13.32
2023-05-21T00:47:23.641Z,16.90
2023-05-21T00:49:54.023Z,14.98
2023-05-21T00:52:22.950Z,16.48
2023-05-21T00:54:51.582Z,20.08
2023-05-21T00:57:27.055Z,18.60
2023-05-21T00:59:54.807Z,16.95
2023-05-21T01:02:24.182Z,18.73
2023-05-21T01:04:56.322Z,16.58
2023-05-21T01:07:23.955Z,15.63
2023-05-21T01:09:51.925Z,13.75
2023-05-21T01:12:21.504Z,15.43
2023-05-21T01:14:52.847Z,14.75
2023-05-21T01:17:24.314Z,19.70
2023-05-21T01:19:54.715Z,15.65
2023-05-21T01:22:25.033Z,15.38
2023-05-21T01:24:55.774Z,14.43
2023-05-21T01:27:23.646Z,14.85
2023-05-21T01:29:50.934Z,13.15
2023-05-21T01:32:40.525Z,18.90
2023-05-21T01:35:24.668Z,13.45
2023-05-21T01:37:59.921Z,16.30
2023-05-21T01:40:39.841Z,15.95
2023-05-21T01:43:09.436Z,21.17
2023-05-21T01:45:42.563Z,19.13
2023-05-21T01:48:12.973Z,15.05
2023-05-21T01:50:45.175Z,20.25
2023-05-21T01:53:12.723Z,14.77
2023-05-21T01:55:41.784Z,16.75
2023-05-21T01:58:09.216Z,16.05
2023-05-21T02:00:37.464Z,21.10
2023-05-21T02:03:05.787Z,17.85
2023-05-21T02:05:33.492Z,15.98
2023-05-21T02:08:01.630Z,16.08
2023-05-21T02:10:29.712Z,17.20
2023-05-21T02:13:49.538Z,16.05
2023-05-21T02:16:31.691Z,15.65
2023-05-21T02:19:00.781Z,19.20
2023-05-21T02:23:55.714Z,15.68
2023-05-21T02:26:23.174Z,23.55
2023-05-21T02:28:52.728Z,23.67
2023-05-21T02:31:19.960Z,18.38
2023-05-21T02:33:47.525Z,18.23
2023-05-21T02:36:15.457Z,18.42
2023-05-21T02:38:43.811Z,15.50
2023-05-21T02:41:14.459Z,22.35
2023-05-21T02:43:41.697Z,16.70
2023-05-21T02:46:09.090Z,24.38
2023-05-21T02:48:36.394Z,16.92
2023-05-21T02:51:10.886Z,17.52
2023-05-21T02:53:41.603Z,21.35
2023-05-21T02:59:25.988Z,13.52
2023-05-21T03:01:53.374Z,17.20
2023-05-21T03:04:22.107Z,20.05
2023-05-21T03:06:54.979Z,19.17
2023-05-21T03:09:23.164Z,19.35
2023-05-21T03:11:51.504Z,19.38
2023-05-21T03:14:19.515Z,15.40
2023-05-21T03:17:28.872Z,19.75
2023-05-21T03:19:57.210Z,18.58
2023-05-21T03:23:41.872Z,15.77
2023-05-21T03:26:09.788Z,14.15
2023-05-21T03:29:55.014Z,22.95
2023-05-21T03:32:23.237Z,19.48
2023-05-21T03:36:29.590Z,21.75
2023-05-21T03:40:38.492Z,20.63
2023-05-21T03:43:05.871Z,20.92
2023-05-21T03:46:48.224Z,17.33
2023-05-21T03:54:35.300Z,19.17
2023-05-21T03:57:28.836Z,17.20
2023-05-21T04:01:12.371Z,19.48
2023-05-21T04:03:43.370Z,18.40
2023-05-21T04:07:27.114Z,21.05
2023-05-21T04:11:10.055Z,16.27
2023-05-21T04:14:53.084Z,17.40
2023-05-21T04:17:21.129Z,18.13
2023-05-21T04:19:48.800Z,17.42
2023-05-21T04:22:17.368Z,17.33
2023-05-21T04:24:46.577Z,15.53
2023-05-21T04:27:23.681Z,21.88
2023-05-21T04:29:51.796Z,15.88
2023-05-21T04:32:19.071Z,17.73
2023-05-21T04:34:46.285Z,17.77
2023-05-21T04:37:13.855Z,20.17
2023-05-21T04:39:41.286Z,19.98
2023-05-21T04:42:10.877Z,22.33
2023-05-21T04:44:40.424Z,19.88
2023-05-21T04:47:07.978Z,19.30
2023-05-21T04:49:36.548Z,18.73
2023-05-21T04:52:04.050Z,17.50
2023-05-21T04:54:31.347Z,18.90
2023-05-21T04:56:58.527Z,17.20
2023-05-21T04:59:25.913Z,22.95
2023-05-21T05:01:53.178Z,17.23
2023-05-21T05:04:22.374Z,21.30
2023-05-21T05:06:50.160Z,19.60
2023-05-21T05:09:17.865Z,18.35
2023-05-21T05:11:45.552Z,16.77
2023-05-21T05:14:12.890Z,16.05
2023-05-21T05:16:42.926Z,17.25
2023-05-21T05:20:07.617Z,17.45
2023-05-21T05:23:04.620Z,17.42
2023-05-21T05:25:32.676Z,22.55
2023-05-21T05:28:00.417Z,17.80
2023-05-21T05:30:27.778Z,17.02
2023-05-21T05:33:00.011Z,17.13
2023-05-21T05:35:27.398Z,18.00
2023-05-21T05:39:10.222Z,16.85
2023-05-21T05:42:53.773Z,17.38
2023-05-21T05:46:36.937Z,20.00
2023-05-21T05:50:19.146Z,15.60
2023-05-21T05:52:46.710Z,17.55
2023-05-21T05:56:28.759Z,19.08
2023-05-21T06:00:11.418Z,21.10
2023-05-21T06:03:59.651Z,16.35
2023-05-21T06:06:26.963Z,17.73
2023-05-21T06:08:54.852Z,16.48
2023-05-21T06:12:37.780Z,16.92
2023-05-21T06:15:07.961Z,15.82
2023-05-21T06:17:35.709Z,14.80
2023-05-21T06:20:05.613Z,20.00
2023-05-21T06:22:34.449Z,19.75
2023-05-21T06:25:02.028Z,15.15
2023-05-21T06:27:29.283Z,21.58
2023-05-21T06:29:57.387Z,19.05
2023-05-21T06:32:25.793Z,18.05
2023-05-21T06:34:53.187Z,21.40
2023-05-21T06:37:26.425Z,20.55
2023-05-21T06:39:54.693Z,24.55
2023-05-21T06:42:22.453Z,16.85
2023-05-21T06:45:09.674Z,24.30
2023-05-21T06:47:38.935Z,20.38
2023-05-21T06:50:06.673Z,20.23
2023-05-21T06:52:33.896Z,18.73
2023-05-21T06:55:02.725Z,19.40
2023-05-21T06:57:44.083Z,23.73
2023-05-21T07:00:12.813Z,22.90
2023-05-21T07:05:09.015Z,26.52
2023-05-21T07:07:36.868Z,21.02
2023-05-21T07:10:04.662Z,33.22
2023-05-21T07:12:32.159Z,22.75
2023-05-21T07:14:59.803Z,20.10
2023-05-21T07:17:31.135Z,19.05
2023-05-21T07:19:59.583Z,18.23
2023-05-21T07:22:28.596Z,18.42
2023-05-21T07:24:56.341Z,19.77
2023-05-21T07:27:25.640Z,19.85
2023-05-21T07:29:55.186Z,20.75
2023-05-21T07:32:23.425Z,18.83
2023-05-21T07:34:53.543Z,17.15
2023-05-21T07:37:22.158Z,16.70
2023-05-21T07:39:49.736Z,17.25
2023-05-21T07:42:17.254Z,14.55
2023-05-21T07:44:44.593Z,16.90
2023-05-21T07:47:11.841Z,13.57
2023-05-21T07:49:39.148Z,14.18
2023-05-21T07:52:07.186Z,15.75
2023-05-21T07:54:34.989Z,14.40
2023-05-21T07:57:02.956Z,12.93
2023-05-21T08:00:03.889Z,14.57
2023-05-21T08:02:33.687Z,14.65
2023-05-21T08:05:04.234Z,14.98
2023-05-21T08:07:32.512Z,14.02
2023-05-21T08:10:01.677Z,13.75
2023-05-21T08:12:31.105Z,13.77
2023-05-21T08:14:59.306Z,15.32
2023-05-21T08:17:28.551Z,11.30
2023-05-21T08:19:56.977Z,13.40
2023-05-21T08:22:24.702Z,13.30
2023-05-21T08:24:52.525Z,12.00
2023-05-21T08:27:19.735Z,14.25
2023-05-21T08:29:47.256Z,12.02
2023-05-21T08:32:14.584Z,13.18
2023-05-21T08:34:43.192Z,12.85
2023-05-21T08:37:24.715Z,12.75
2023-05-21T08:40:12.310Z,13.70
2023-05-21T08:42:49.435Z,11.93
2023-05-21T08:45:27.757Z,11.27
2023-05-21T08:47:59.622Z,10.77
2023-05-21T08:50:32.689Z,11.45
2023-05-21T08:53:12.734Z,10.40
2023-05-21T08:55:55.666Z,11.50
2023-05-21T08:58:23.595Z,8.80
2023-05-21T09:00:51.831Z,10.10
2023-05-21T09:03:27.639Z,9.48
2023-05-21T09:05:57.214Z,9.23
2023-05-21T09:08:36.383Z,13.35
2023-05-21T09:11:08.406Z,9.13
2023-05-21T09:13:46.336Z,11.20
2023-05-21T09:16:21.582Z,8.77
2023-05-21T09:18:49.986Z,11.90
2023-05-21T09:21:31.423Z,33.40
2023-05-21T09:24:04.868Z,14.00
2023-05-21T09:26:34.130Z,13.95
2023-05-21T09:29:05.737Z,8.63
2023-05-21T09:31:33.058Z,9.43
2023-05-21T09:34:01.576Z,12.63
2023-05-21T09:36:32.271Z,9.93
2023-05-21T09:39:00.586Z,12.75
2023-05-21T09:41:36.236Z,11.15
2023-05-21T09:44:05.776Z,9.60
2023-05-21T09:46:42.398Z,8.88
2023-05-21T09:49:26.745Z,11.88
2023-05-21T09:51:59.443Z,10.82
2023-05-21T09:54:34.409Z,11.93
2023-05-21T09:57:05.125Z,13.88
2023-05-21T09:59:41.563Z,18.20
2023-05-21T10:02:23.537Z,15.60
2023-05-21T10:04:54.724Z,9.88
2023-05-21T10:07:28.803Z,9.30
2023-05-21T10:09:58.631Z,9.18
2023-05-21T10:12:30.529Z,9.80
2023-05-21T10:15:04.477Z,9.98
2023-05-21T10:17:33.491Z,9.13
2023-05-21T10:20:03.062Z,10.00
2023-05-21T10:22:31.528Z,9.85
2023-05-21T10:25:01.166Z,10.95
2023-05-21T10:27:32.500Z,11.68
2023-05-21T10:30:00.863Z,18.00
2023-05-21T10:32:28.909Z,10.87
2023-05-21T10:34:59.415Z,16.30
2023-05-21T10:37:29.297Z,7.97
2023-05-21T10:39:57.816Z,9.73
2023-05-21T10:42:31.592Z,11.77
2023-05-21T10:46:04.145Z,11.68
2023-05-21T10:49:01.512Z,9.30
2023-05-21T10:52:11.995Z,12.73
2023-05-21T10:55:28.220Z,11.18
2023-05-21T10:58:32.758Z,9.25
2023-05-21T11:01:02.892Z,9.95
2023-05-21T11:03:34.300Z,9.75
2023-05-21T11:06:08.472Z,9.80
2023-05-21T11:08:37.275Z,11.27
2023-05-21T11:11:05.584Z,8.70
2023-05-21T11:13:51.472Z,11.73
2023-05-21T11:16:21.769Z,11.57
2023-05-21T11:18:49.475Z,8.85
2023-05-21T11:21:22.622Z,12.30
2023-05-21T11:24:06.651Z,8.77
2023-05-21T11:27:07.530Z,8.15
2023-05-21T11:29:42.849Z,13.63
2023-05-21T11:32:15.635Z,8.45
2023-05-21T11:34:47.957Z,6.40
2023-05-21T11:37:18.103Z,10.43
2023-05-21T11:39:50.459Z,12.00
2023-05-21T11:42:42.486Z,7.47
2023-05-21T11:45:11.212Z,12.25
2023-05-21T11:47:41.809Z,8.30
2023-05-21T11:50:14.973Z,6.80
2023-05-21T11:52:43.855Z,8.73
2023-05-21T11:57:44.711Z,7.18
2023-05-21T12:00:17.125Z,6.28
2023-05-21T12:02:57.414Z,7.10
2023-05-21T12:05:25.209Z,11.30
2023-05-21T12:07:54.535Z,7.22
2023-05-21T12:10:24.935Z,6.15
2023-05-21T12:12:56.311Z,8.27
2023-05-21T12:15:26.976Z,12.52
2023-05-21T12:17:56.031Z,9.52
2023-05-21T12:22:51.923Z,10.15
2023-05-21T12:25:22.332Z,9.70
2023-05-21T12:27:57.657Z,7.43
2023-05-21T12:30:28.971Z,9.48
2023-05-21T12:32:59.698Z,7.95
2023-05-21T12:35:27.629Z,7.90
2023-05-21T12:37:55.162Z,6.15
2023-05-21T12:40:22.711Z,7.78
2023-05-21T12:42:51.557Z,5.30
2023-05-21T12:45:21.191Z,7.95
2023-05-21T12:47:58.092Z,6.10
2023-05-21T12:50:25.561Z,19.70
2023-05-21T12:52:58.584Z,8.85
2023-05-21T12:55:26.561Z,8.65
2023-05-21T12:58:08.875Z,7.25
2023-05-21T13:00:37.547Z,10.23
2023-05-21T13:03:06.788Z,11.63
2023-05-21T13:05:35.736Z,7.18
2023-05-21T13:10:31.452Z,5.60
2023-05-21T13:12:58.845Z,6.30
2023-05-21T13:15:26.225Z,4.78
2023-05-21T13:17:56.557Z,7.45
2023-05-21T13:20:27.620Z,5.97
2023-05-21T13:22:55.556Z,5.50
2023-05-21T13:25:29.518Z,4.13
2023-05-21T13:27:58.618Z,8.07
2023-05-21T13:32:53.446Z,14.02
2023-05-21T13:35:21.080Z,7.97
2023-05-21T13:37:48.398Z,9.75
2023-05-21T13:40:16.679Z,13.80
2023-05-21T13:42:47.735Z,12.48
2023-05-21T13:45:19.880Z,6.93
2023-05-21T13:47:48.462Z,5.95
2023-05-21T13:50:21.549Z,4.88
2023-05-21T13:52:49.157Z,16.08
2023-05-21T13:55:17.362Z,7.15
2023-05-21T13:57:46.936Z,9.23
2023-05-21T14:00:15.818Z,5.25
2023-05-21T14:02:44.697Z,5.38
2023-05-21T14:05:13.072Z,9.13
2023-05-21T14:07:41.920Z,6.47
2023-05-21T14:10:09.863Z,8.35
2023-05-21T14:12:38.618Z,6.60
2023-05-21T14:15:07.823Z,8.05
2023-05-21T14:17:35.680Z,6.15
2023-05-21T14:20:04.199Z,6.47
2023-05-21T14:22:31.815Z,6.90
2023-05-21T14:24:59.773Z,6.40
2023-05-21T14:27:27.199Z,6.43
2023-05-21T14:29:54.560Z,7.22
2023-05-21T14:32:21.986Z,6.93
2023-05-21T14:34:49.424Z,9.20
2023-05-21T14:37:17.565Z,7.45
2023-05-21T14:39:45.026Z,9.90
2023-05-21T14:42:12.434Z,4.70
2023-05-21T14:44:39.612Z,6.80
2023-05-21T14:47:07.209Z,9.35
2023-05-21T14:49:34.558Z,7.35
2023-05-21T14:52:02.119Z,7.13
2023-05-21T14:54:29.931Z,9.90
2023-05-21T14:56:57.732Z,10.53
2023-05-21T14:59:24.954Z,6.97
2023-05-21T15:01:53.730Z,7.63
2023-05-21T15:04:21.171Z,8.82
2023-05-21T15:06:48.591Z,6.90
2023-05-21T15:09:18.212Z,4.65
2023-05-21T15:11:46.144Z,9.07
2023-05-21T15:14:13.620Z,9.10
2023-05-21T15:16:41.120Z,14.60
2023-05-21T15:19:08.728Z,18.52
2023-05-21T15:21:36.437Z,21.90
2023-05-21T15:24:04.822Z,14.63
2023-05-21T15:26:32.440Z,8.50
2023-05-21T15:28:59.741Z,18.23
2023-05-21T15:31:27.173Z,14.50
2023-05-21T15:33:54.552Z,7.50
2023-05-21T15:36:21.892Z,9.40
2023-05-21T15:38:49.228Z,8.77
2023-05-21T15:41:16.494Z,14.23
2023-05-21T15:43:43.906Z,10.90
2023-05-21T15:46:12.830Z,10.10
2023-05-21T15:48:40.428Z,6.07
2023-05-21T15:51:08.105Z,6.57
2023-05-21T15:53:35.835Z,5.82
2023-05-21T15:56:03.465Z,7.15
2023-05-21T15:58:31.711Z,6.73
2023-05-21T16:00:59.203Z,12.47
2023-05-21T16:03:31.268Z,21.58
2023-05-21T16:05:59.032Z,38.03
2023-05-21T16:08:26.266Z,73.30
2023-05-21T16:10:53.867Z,88.15
2023-05-21T16:13:21.569Z,75.20
2023-05-21T16:15:49.451Z,75.05
2023-05-21T16:18:16.918Z,71.38
2023-05-21T16:20:44.667Z,39.92
2023-05-21T16:23:16.637Z,50.92
2023-05-21T16:25:44.204Z,48.92
2023-05-21T16:28:12.252Z,5.85
2023-05-21T16:30:39.750Z,29.25
2023-05-21T16:33:07.853Z,34.40
2023-05-21T16:35:35.405Z,32.45
2023-05-21T16:38:02.950Z,27.02
2023-05-21T16:40:31.509Z,25.52
2023-05-21T16:43:01.792Z,14.52
2023-05-21T16:45:40.754Z,18.73
2023-05-21T16:48:09.289Z,49.67
2023-05-21T16:50:36.735Z,59.22
2023-05-21T16:53:06.407Z,84.07
2023-05-21T16:55:36.636Z,75.90
2023-05-21T16:58:06.680Z,65.20
2023-05-21T17:00:34.387Z,36.42
2023-05-21T17:03:01.994Z,38.00
2023-05-21T17:05:29.648Z,37.10
2023-05-21T17:07:57.223Z,31.75
2023-05-21T17:10:25.736Z,29.23
2023-05-21T17:15:21.814Z,20.17
2023-05-21T17:17:49.063Z,21.25
2023-05-21T17:20:16.741Z,17.58
2023-05-21T17:22:44.414Z,14.32
2023-05-21T17:25:12.411Z,24.15
2023-05-21T17:27:39.897Z,23.02
2023-05-21T17:30:10.009Z,16.88
2023-05-21T17:32:37.397Z,13.23
2023-05-21T17:35:05.257Z,15.65
2023-05-21T17:37:32.568Z,16.23
2023-05-21T17:39:59.833Z,14.43
2023-05-21T17:42:27.291Z,16.67
2023-05-21T17:44:55.049Z,18.30
2023-05-21T17:47:23.217Z,12.03
2023-05-21T17:49:50.935Z,13.50
2023-05-21T17:52:18.550Z,12.10
2023-05-21T17:54:46.300Z,15.93
2023-05-21T17:57:16.101Z,16.92
2023-05-21T17:59:45.336Z,9.98
2023-05-21T18:02:13.671Z,9.27
2023-05-21T18:04:41.375Z,7.88
2023-05-21T18:07:08.872Z,11.63
2023-05-21T18:09:36.164Z,17.80
2023-05-21T18:12:05.836Z,16.30
2023-05-21T18:14:33.926Z,10.70
2023-05-21T18:17:01.818Z,16.83
2023-05-21T18:19:30.482Z,23.08
2023-05-21T18:21:58.271Z,17.38
2023-05-21T18:24:26.413Z,30.10
2023-05-21T18:26:53.807Z,39.70
2023-05-21T18:29:21.121Z,55.72
2023-05-21T18:31:48.881Z,54.20
2023-05-21T18:34:17.432Z,32.77
2023-05-21T18:36:44.898Z,22.45
2023-05-21T18:39:12.847Z,22.85
2023-05-21T18:41:40.516Z,21.03
2023-05-21T18:44:07.783Z,18.65
2023-05-21T18:46:36.422Z,22.80
2023-05-21T18:51:32.864Z,18.33
2023-05-21T18:54:01.221Z,9.57
2023-05-21T18:56:28.757Z,13.75
2023-05-21T18:58:56.038Z,13.50
2023-05-21T19:01:23.784Z,14.00
2023-05-21T19:03:51.479Z,13.27
2023-05-21T19:06:25.037Z,11.80
2023-05-21T19:08:53.010Z,12.00
2023-05-21T19:11:23.622Z,14.88
2023-05-21T19:13:51.173Z,13.25
2023-05-21T19:16:18.460Z,14.85
2023-05-21T19:18:46.071Z,12.55
2023-05-21T19:21:13.856Z,10.70
2023-05-21T19:23:51.983Z,12.95
2023-05-21T19:26:21.389Z,14.45
2023-05-21T19:28:52.974Z,10.18
2023-05-21T19:31:22.274Z,12.15
2023-05-21T19:36:17.383Z,12.20
2023-05-21T19:38:51.149Z,13.43
2023-05-21T19:41:21.563Z,15.77
2023-05-21T19:43:48.911Z,15.20
2023-05-21T19:46:19.751Z,11.02
2023-05-21T19:48:49.370Z,10.95
2023-05-21T19:51:17.341Z,12.95
2023-05-21T19:53:45.038Z,14.32
2023-05-21T19:56:17.872Z,13.82
2023-05-21T19:58:47.739Z,19.48
2023-05-21T20:01:18.749Z,14.07
2023-05-21T20:03:46.665Z,14.45
2023-05-21T20:06:16.161Z,16.35
2023-05-21T20:08:43.685Z,14.48
2023-05-21T20:11:11.659Z,14.73
2023-05-21T20:13:41.193Z,14.50
2023-05-21T20:16:10.341Z,18.30
2023-05-21T20:21:06.339Z,23.45
2023-05-21T20:23:39.009Z,21.65
2023-05-21T20:26:07.098Z,31.13
2023-05-21T20:28:35.733Z,23.80
2023-05-21T20:31:03.670Z,14.52
2023-05-21T20:33:34.867Z,21.40
2023-05-21T20:36:03.737Z,23.63
2023-05-21T20:38:33.114Z,24.73
2023-05-21T20:41:03.314Z,26.38
2023-05-21T20:43:30.743Z,16.38
2023-05-21T20:46:01.894Z,22.65
2023-05-21T20:48:29.865Z,15.82
2023-05-21T20:50:57.825Z,16.95
2023-05-21T20:53:31.354Z,19.30
2023-05-21T20:56:01.594Z,13.20
2023-05-21T20:58:29.222Z,13.05
2023-05-21T21:00:56.614Z,12.45
2023-05-21T21:03:24.034Z,19.05
2023-05-21T21:05:53.036Z,13.25
2023-05-21T21:10:48.158Z,13.43
2023-05-21T21:13:15.873Z,14.63
2023-05-21T21:15:43.922Z,13.30
2023-05-21T21:18:14.731Z,17.63
2023-05-21T21:20:43.212Z,20.25
2023-05-21T21:25:44.637Z,14.18
2023-05-21T21:28:11.999Z,16.17
2023-05-21T21:30:41.102Z,13.90
2023-05-21T21:35:36.358Z,13.70
2023-05-21T21:38:04.961Z,17.85
2023-05-21T21:40:32.833Z,14.50
2023-05-21T21:43:00.611Z,16.50
2023-05-21T21:45:28.436Z,13.98
2023-05-21T21:47:56.059Z,14.27
2023-05-21T21:50:23.553Z,15.85
2023-05-21T21:52:51.080Z,14.38
2023-05-21T21:55:19.051Z,12.82
2023-05-21T21:57:46.608Z,14.80
2023-05-21T22:00:27.590Z,14.57
2023-05-21T22:02:59.489Z,15.35
2023-05-21T22:05:30.673Z,16.73
2023-05-21T22:07:58.296Z,13.07
2023-05-21T22:10:26.047Z,15.70
2023-05-21T22:12:53.363Z,18.35
2023-05-21T22:15:28.700Z,13.50
2023-05-21T22:17:56.559Z,14.80
2023-05-21T22:20:32.980Z,13.70
2023-05-21T22:23:00.458Z,17.67
2023-05-21T22:25:27.703Z,14.93
2023-05-21T22:27:55.004Z,13.52
2023-05-21T22:30:22.623Z,15.05
2023-05-21T22:32:49.995Z,16.63
2023-05-21T22:35:17.390Z,17.33
2023-05-21T22:37:44.906Z,20.38
2023-05-21T22:40:12.474Z,13.88
2023-05-21T22:42:39.870Z,17.98
2023-05-21T22:45:08.561Z,14.43
2023-05-21T22:47:39.413Z,16.10
2023-05-21T22:50:08.182Z,14.70
2023-05-21T22:52:36.885Z,16.27
2023-05-21T22:55:06.367Z,15.18
2023-05-21T22:57:33.925Z,16.80
2023-05-21T23:00:01.209Z,14.93
2023-05-21T23:02:29.441Z,14.55
2023-05-21T23:04:58.230Z,15.18
2023-05-21T23:07:25.922Z,15.13
2023-05-21T23:09:53.429Z,16.17
2023-05-21T23:12:21.373Z,16.08
2023-05-21T23:14:49.299Z,18.02
2023-05-21T23:17:17.277Z,14.55
2023-05-21T23:19:44.756Z,15.75
2023-05-21T23:22:12.435Z,15.35
2023-05-21T23:24:40.215Z,17.55
2023-05-21T23:27:07.787Z,17.55
2023-05-21T23:29:35.358Z,19.55
2023-05-21T23:32:05.203Z,19.13
2023-05-21T23:34:32.546Z,17.35
2023-05-21T23:37:00.636Z,19.52
2023-05-21T23:39:28.806Z,16.63
2023-05-21T23:41:55.997Z,15.93
2023-05-21T23:44:23.358Z,15.65
2023-05-21T23:46:51.071Z,15.93
2023-05-21T23:49:18.420Z,21.60
2023-05-21T23:51:46.867Z,14.00
2023-05-21T23:54:16.964Z,17.30
2023-05-21T23:56:44.450Z,17.90
2023-05-21T23:59:11.885Z,14.80
